Accueil
METAR-TAF:

METAR-TAF

Aéroports :

Locarno, Suisse

latitude: 46-09-55N, longitude: 8-52-40E, altitude: 198 m

Observation

Le bulletin a été fait il y a 37 minutes, à 01:50 UTC
Vent 1 kt de direction variable
Température 2°C
Humidité 87%
Pression 1032 hPa
Visibilité 10 km ou plus

METAR: LSZL 220150Z AUTO VRB01KT 9999NDV NCD 02/00 Q1032 RMK

Heure: 03:27 (02:27 UTC)

Prévision

Le bulletin a été fait il y a 9 heures et 2 minutes, à 17:25 UTC
Prévision valable du 21 à 18 UTC au 22 à 03 UTC
Vent 5 kt de ouest/sud-ouest
Visibilité 10 km ou plus
pas de nuages en-dessous de 1500 mètres et pas de cumulonimbus.

TAF: LSZL 211725Z 2118/2203 25005KT CAVOK

Observations et prévisions météorologiques de plus de 4000 aéroports (messages METAR et TAF).

Les stations disponibles sont représentées par des disques jaunes et rouges sur la carte.

Passer la souris dessus pour voir le nom de la station.

Cliquer dessus pour voir les observations et prévisions météorologiques.

Pour changer de carte: cliquez sur les boutons verts avec une croix noire pour zoomer, sur le bouton vert avec un tiret pour effectuer un zoom arrière, ou sur les flèches vertes pour les cartes adjacentes.


METAR-TAF: